Lanty, Arkansas
Current Conditions -  °F | °C
As of 4:53 PM on Saturday 20 Dec 2014 (Local Time) from KRUE Reporting Station
Overcast Overcast  
Wind Chill: 47°   Ceiling: 4500
Heat Index: 47°   Visibility: 9mi
Dew Point: 39°   Wind: 0mph
Humidity: 74%   Direction: NA
Pressure: 30.21"   Gusts: NA
Location:  35.227°N, 92.6879°W
Report Text: KRUE 202253Z AUTO 00000KT 9SM FEW022 OVC045 08/04 A3021 RMK AO2 SLP229 T00830039
Loading
Personal Weather Stations






























Interactive Weather Map New forecast layout! Learn more

10-Day Weather Forecast

Advertisements
Track Severe Weather on mobile